createdAt,value
2022-11-26T00:02:24.046Z,34.25
2022-11-26T00:04:52.770Z,36.08
2022-11-26T00:07:23.030Z,33.63
2022-11-26T00:09:50.392Z,37.03
2022-11-26T00:12:23.739Z,40.70
2022-11-26T00:14:51.560Z,37.53
2022-11-26T00:17:19.619Z,36.47
2022-11-26T00:19:47.090Z,35.63
2022-11-26T00:22:29.647Z,34.08
2022-11-26T00:24:57.078Z,36.58
2022-11-26T00:27:28.076Z,39.92
2022-11-26T00:29:55.414Z,30.85
2022-11-26T00:32:25.521Z,37.13
2022-11-26T00:34:53.754Z,35.85
2022-11-26T00:37:25.998Z,30.92
2022-11-26T00:39:53.665Z,35.28
2022-11-26T00:42:20.768Z,36.78
2022-11-26T00:44:48.198Z,35.65
2022-11-26T00:47:15.184Z,33.83
2022-11-26T00:49:42.200Z,35.15
2022-11-26T00:52:32.640Z,36.58
2022-11-26T00:55:01.309Z,39.88
2022-11-26T00:57:28.325Z,34.78
2022-11-26T00:59:55.360Z,33.30
2022-11-26T01:02:22.340Z,38.85
2022-11-26T01:04:49.460Z,37.10
2022-11-26T01:07:16.572Z,37.80
2022-11-26T01:09:46.233Z,37.70
2022-11-26T01:12:14.764Z,36.33
2022-11-26T01:14:41.724Z,33.47
2022-11-26T01:17:12.033Z,33.85
2022-11-26T01:19:39.123Z,41.20
2022-11-26T01:22:06.182Z,32.85
2022-11-26T01:24:33.516Z,34.72
2022-11-26T01:27:00.539Z,32.55
2022-11-26T01:29:27.668Z,37.45
2022-11-26T01:31:54.750Z,38.25
2022-11-26T01:34:21.724Z,33.05
2022-11-26T01:36:48.709Z,35.72
2022-11-26T01:39:17.281Z,34.63
2022-11-26T01:41:54.741Z,36.90
2022-11-26T01:44:25.059Z,33.50
2022-11-26T01:46:53.096Z,33.90
2022-11-26T01:49:26.004Z,32.70
2022-11-26T01:52:24.879Z,29.67
2022-11-26T01:54:53.486Z,35.22
2022-11-26T01:57:27.032Z,28.02
2022-11-26T01:59:56.910Z,31.08
2022-11-26T02:02:27.229Z,31.63
2022-11-26T02:05:22.655Z,31.50
2022-11-26T02:07:50.534Z,31.63
2022-11-26T02:10:17.959Z,27.85
2022-11-26T02:12:45.276Z,28.67
2022-11-26T02:15:12.865Z,30.90
2022-11-26T02:17:52.494Z,34.75
2022-11-26T02:20:42.432Z,31.83
2022-11-26T02:23:34.543Z,28.98
2022-11-26T02:26:32.249Z,30.33
2022-11-26T02:29:08.007Z,33.20
2022-11-26T02:31:57.207Z,31.83
2022-11-26T02:34:37.527Z,28.38
2022-11-26T02:37:13.385Z,27.67
2022-11-26T02:39:40.435Z,36.55
2022-11-26T02:42:30.392Z,40.17
2022-11-26T02:45:06.136Z,36.60
2022-11-26T02:47:33.971Z,37.75
2022-11-26T02:50:07.055Z,34.53
2022-11-26T02:52:35.401Z,37.42
2022-11-26T02:55:05.720Z,36.10
2022-11-26T02:57:36.892Z,39.70
2022-11-26T03:00:05.869Z,35.53
2022-11-26T03:02:42.506Z,33.97
2022-11-26T03:05:11.583Z,37.35
2022-11-26T03:07:39.489Z,33.75
2022-11-26T03:10:07.383Z,35.38
2022-11-26T03:12:34.432Z,42.33
2022-11-26T03:15:01.637Z,40.80
2022-11-26T03:17:28.653Z,39.22
2022-11-26T03:19:55.730Z,39.17
2022-11-26T03:22:22.818Z,38.45
2022-11-26T03:24:49.798Z,41.50
2022-11-26T03:27:16.823Z,38.53
2022-11-26T03:29:43.808Z,38.53
2022-11-26T03:32:10.791Z,34.95
2022-11-26T03:34:37.912Z,40.40
2022-11-26T03:37:05.053Z,37.90
2022-11-26T03:39:32.042Z,32.85
2022-11-26T03:41:59.009Z,43.05
2022-11-26T03:44:25.981Z,37.80
2022-11-26T03:46:53.005Z,37.42
2022-11-26T03:49:20.116Z,35.83
2022-11-26T03:51:47.049Z,35.97
2022-11-26T03:54:14.978Z,36.50
2022-11-26T03:56:42.291Z,35.28
2022-11-26T03:59:09.328Z,34.83
2022-11-26T04:01:36.327Z,35.13
2022-11-26T04:04:03.953Z,34.28
2022-11-26T04:06:31.110Z,40.35
2022-11-26T04:08:58.084Z,41.88
2022-11-26T04:11:25.095Z,35.22
2022-11-26T04:14:11.895Z,40.65
2022-11-26T04:16:39.070Z,42.17
2022-11-26T04:19:06.248Z,40.22
2022-11-26T04:21:33.228Z,39.63
2022-11-26T04:24:00.165Z,39.30
2022-11-26T04:26:27.313Z,41.20
2022-11-26T04:28:54.380Z,36.92
2022-11-26T04:31:22.067Z,36.83
2022-11-26T04:33:49.124Z,45.00
2022-11-26T04:36:16.075Z,40.20
2022-11-26T04:38:43.116Z,39.13
2022-11-26T04:41:10.244Z,39.63
2022-11-26T04:43:37.271Z,37.15
2022-11-26T04:46:04.482Z,38.45
2022-11-26T04:48:31.476Z,34.70
2022-11-26T04:50:58.507Z,38.78
2022-11-26T04:53:25.820Z,41.13
2022-11-26T04:55:53.239Z,39.63
2022-11-26T04:58:21.397Z,35.20
2022-11-26T05:00:51.005Z,50.05
2022-11-26T05:03:19.065Z,40.47
2022-11-26T05:05:47.157Z,41.28
2022-11-26T05:08:14.745Z,36.50
2022-11-26T05:10:42.001Z,38.33
2022-11-26T05:13:09.397Z,41.88
2022-11-26T05:15:36.386Z,37.45
2022-11-26T05:18:03.448Z,41.10
2022-11-26T05:20:31.312Z,39.85
2022-11-26T05:22:58.336Z,38.15
2022-11-26T05:25:25.288Z,38.08
2022-11-26T05:27:52.298Z,40.55
2022-11-26T05:30:19.657Z,39.58
2022-11-26T05:32:46.868Z,37.80
2022-11-26T05:35:13.929Z,37.25
2022-11-26T05:37:40.890Z,36.63
2022-11-26T05:40:08.877Z,41.92
2022-11-26T05:42:36.005Z,38.88
2022-11-26T05:45:04.187Z,45.60
2022-11-26T05:47:31.176Z,38.53
2022-11-26T05:49:58.320Z,41.83
2022-11-26T05:52:25.401Z,40.63
2022-11-26T05:54:52.538Z,40.35
2022-11-26T05:57:20.225Z,35.10
2022-11-26T05:59:49.227Z,39.35
2022-11-26T06:02:16.501Z,39.60
2022-11-26T06:04:43.644Z,38.47
2022-11-26T06:07:10.921Z,36.15
2022-11-26T06:09:38.222Z,39.63
2022-11-26T06:12:05.663Z,39.90
2022-11-26T06:14:32.722Z,35.97
2022-11-26T06:16:59.870Z,38.85
2022-11-26T06:19:27.118Z,37.83
2022-11-26T06:21:54.071Z,35.13
2022-11-26T06:24:21.101Z,39.60
2022-11-26T06:26:48.089Z,35.08
2022-11-26T06:29:15.074Z,36.45
2022-11-26T06:31:42.175Z,37.17
2022-11-26T06:34:09.212Z,33.80
2022-11-26T06:36:36.195Z,40.78
2022-11-26T06:39:03.463Z,37.05
2022-11-26T06:41:30.434Z,40.83
2022-11-26T06:43:59.383Z,39.47
2022-11-26T06:46:26.387Z,35.97
2022-11-26T06:48:53.455Z,38.30
2022-11-26T06:51:21.973Z,35.67
2022-11-26T06:53:49.380Z,38.33
2022-11-26T06:56:19.161Z,36.03
2022-11-26T06:58:52.059Z,36.85
2022-11-26T07:01:21.343Z,41.42
2022-11-26T07:03:48.493Z,40.90
2022-11-26T07:06:16.943Z,35.70
2022-11-26T07:08:44.732Z,39.92
2022-11-26T07:11:12.004Z,34.33
2022-11-26T07:13:39.131Z,35.13
2022-11-26T07:16:06.771Z,34.95
2022-11-26T07:18:34.286Z,35.65
2022-11-26T07:21:06.229Z,36.10
2022-11-26T07:23:33.305Z,37.55
2022-11-26T07:26:04.537Z,33.53
2022-11-26T07:28:31.625Z,39.72
2022-11-26T07:31:03.924Z,35.45
2022-11-26T07:33:31.175Z,37.80
2022-11-26T07:36:03.189Z,35.47
2022-11-26T07:38:30.561Z,38.00
2022-11-26T07:41:07.041Z,42.42
2022-11-26T07:43:38.310Z,35.38
2022-11-26T07:46:07.574Z,40.53
2022-11-26T07:48:35.176Z,41.65
2022-11-26T07:51:03.218Z,40.30
2022-11-26T07:53:34.843Z,38.85
2022-11-26T07:56:06.119Z,41.80
2022-11-26T07:58:33.755Z,44.38
2022-11-26T08:01:12.009Z,44.63
2022-11-26T08:03:43.370Z,46.75
2022-11-26T08:06:13.461Z,46.08
2022-11-26T08:08:41.340Z,41.25
2022-11-26T08:11:17.651Z,45.72
2022-11-26T08:13:45.843Z,45.40
2022-11-26T08:16:14.067Z,45.80
2022-11-26T08:18:41.902Z,47.22
2022-11-26T08:21:09.024Z,49.13
2022-11-26T08:23:36.117Z,46.10
2022-11-26T08:29:00.366Z,49.57
2022-11-26T08:31:28.210Z,51.10
2022-11-26T08:33:59.945Z,54.35
2022-11-26T08:36:28.400Z,53.15
2022-11-26T08:38:55.755Z,52.55
2022-11-26T08:41:23.118Z,48.88
2022-11-26T08:44:06.954Z,50.45
2022-11-26T08:46:40.148Z,50.15
2022-11-26T08:49:10.199Z,46.97
2022-11-26T08:51:37.297Z,50.35
2022-11-26T08:54:04.875Z,53.60
2022-11-26T08:56:31.985Z,46.40
2022-11-26T08:58:59.234Z,48.55
2022-11-26T09:01:29.667Z,54.45
2022-11-26T09:04:00.194Z,48.70
2022-11-26T09:06:29.785Z,47.83
2022-11-26T09:09:17.330Z,50.05
2022-11-26T09:11:47.174Z,54.90
2022-11-26T09:14:16.196Z,50.78
2022-11-26T09:16:43.833Z,50.50
2022-11-26T09:19:12.872Z,51.20
2022-11-26T09:21:40.641Z,53.83
2022-11-26T09:24:07.802Z,50.15
2022-11-26T09:26:35.632Z,49.72
2022-11-26T09:29:03.321Z,49.83
2022-11-26T09:31:31.011Z,52.50
2022-11-26T09:34:00.248Z,50.70
2022-11-26T09:36:27.382Z,51.85
2022-11-26T09:38:58.170Z,48.55
2022-11-26T09:41:43.809Z,50.20
2022-11-26T09:44:32.200Z,55.42
2022-11-26T09:47:22.321Z,52.92
2022-11-26T09:50:13.406Z,50.15
2022-11-26T09:52:55.151Z,53.63
2022-11-26T09:55:32.307Z,49.45
2022-11-26T09:58:26.546Z,49.60
2022-11-26T10:00:56.757Z,50.92
2022-11-26T10:03:38.663Z,46.40
2022-11-26T10:06:39.955Z,49.45
2022-11-26T10:09:28.584Z,49.95
2022-11-26T10:12:07.211Z,51.47
2022-11-26T10:14:46.000Z,49.40
2022-11-26T10:17:19.226Z,47.25
2022-11-26T10:20:00.667Z,50.45
2022-11-26T10:22:45.044Z,45.50
2022-11-26T10:25:18.563Z,47.17
2022-11-26T10:27:48.183Z,54.08
2022-11-26T10:30:24.343Z,58.78
2022-11-26T10:32:52.889Z,55.17
2022-11-26T10:35:25.868Z,50.97
2022-11-26T10:37:55.783Z,53.03
2022-11-26T10:40:25.514Z,45.90
2022-11-26T10:43:06.137Z,51.47
2022-11-26T10:45:48.429Z,56.80
2022-11-26T10:48:28.693Z,52.33
2022-11-26T10:50:55.635Z,56.85
2022-11-26T10:53:24.069Z,54.53
2022-11-26T10:56:00.055Z,56.08
2022-11-26T10:58:42.277Z,52.35
2022-11-26T11:01:10.152Z,50.55
2022-11-26T11:04:07.330Z,52.03
2022-11-26T11:06:44.301Z,53.35
2022-11-26T11:09:32.925Z,50.38
2022-11-26T11:12:20.345Z,50.88
2022-11-26T11:14:48.576Z,50.67
2022-11-26T11:17:42.353Z,50.40
2022-11-26T11:20:15.601Z,49.38
2022-11-26T11:22:44.305Z,53.17
2022-11-26T11:25:26.028Z,52.92
2022-11-26T11:27:55.219Z,52.22
2022-11-26T11:30:27.814Z,49.25
2022-11-26T11:33:09.390Z,47.67
2022-11-26T11:35:36.614Z,44.97
2022-11-26T11:38:03.888Z,50.78
2022-11-26T11:40:40.400Z,49.20
2022-11-26T11:43:14.404Z,51.60
2022-11-26T11:46:02.574Z,55.05
2022-11-26T11:48:35.272Z,51.55
2022-11-26T11:51:38.287Z,56.72
2022-11-26T11:54:24.352Z,47.58
2022-11-26T11:57:04.552Z,50.15
2022-11-26T11:59:58.263Z,51.22
2022-11-26T12:02:37.476Z,49.03
2022-11-26T12:05:23.405Z,45.55
2022-11-26T12:08:06.267Z,47.05
2022-11-26T12:11:23.333Z,49.13
2022-11-26T12:13:56.312Z,49.42
2022-11-26T12:16:27.319Z,46.65
2022-11-26T12:19:00.758Z,47.45
2022-11-26T12:21:54.468Z,48.40
2022-11-26T12:24:36.641Z,37.75
2022-11-26T12:27:31.873Z,41.25
2022-11-26T12:30:21.785Z,33.92
2022-11-26T12:33:05.713Z,34.22
2022-11-26T12:35:43.477Z,37.17
2022-11-26T12:38:30.637Z,38.67
2022-11-26T12:40:58.075Z,35.35
2022-11-26T12:43:35.260Z,39.75
2022-11-26T12:46:23.309Z,37.53
2022-11-26T12:48:56.647Z,39.58
2022-11-26T12:51:35.256Z,33.55
2022-11-26T12:54:19.848Z,25.40
2022-11-26T12:57:07.233Z,32.35
2022-11-26T13:00:06.817Z,26.10
2022-11-26T13:02:43.296Z,28.55
2022-11-26T13:05:51.395Z,27.88
2022-11-26T13:08:44.969Z,26.67
2022-11-26T13:11:39.576Z,27.48
2022-11-26T13:14:43.818Z,27.20
2022-11-26T13:17:16.867Z,25.73
2022-11-26T13:19:53.021Z,25.35
2022-11-26T13:22:50.538Z,26.50
2022-11-26T13:25:41.584Z,26.73
2022-11-26T13:29:00.996Z,25.88
2022-11-26T13:31:37.359Z,26.00
2022-11-26T13:34:21.770Z,27.95
2022-11-26T13:37:20.280Z,28.10
2022-11-26T13:40:16.160Z,29.10
2022-11-26T13:43:10.867Z,27.35
2022-11-26T13:46:22.544Z,32.03
2022-11-26T13:48:58.688Z,26.15
2022-11-26T13:51:36.862Z,33.63
2022-11-26T13:54:13.551Z,30.60
2022-11-26T13:56:41.874Z,31.20
2022-11-26T13:59:28.340Z,27.65
2022-11-26T14:01:56.352Z,31.88
2022-11-26T14:04:23.373Z,30.17
2022-11-26T14:07:05.557Z,26.55
2022-11-26T14:09:44.440Z,31.35
2022-11-26T14:12:12.633Z,28.88
2022-11-26T14:14:41.896Z,30.73
2022-11-26T14:17:09.015Z,28.35
2022-11-26T14:19:42.341Z,23.88
2022-11-26T14:22:33.726Z,21.20
2022-11-26T14:25:09.530Z,22.70
2022-11-26T14:27:40.866Z,21.45
2022-11-26T14:30:07.809Z,20.67
2022-11-26T14:33:00.408Z,18.25
2022-11-26T14:35:34.516Z,18.20
2022-11-26T14:38:04.575Z,16.45
2022-11-26T14:40:37.572Z,15.70
2022-11-26T14:43:15.171Z,13.48
2022-11-26T14:45:47.473Z,14.27
2022-11-26T14:48:26.018Z,13.38
2022-11-26T14:50:58.906Z,14.43
2022-11-26T14:53:30.075Z,13.02
2022-11-26T14:55:57.933Z,12.57
2022-11-26T14:58:30.779Z,11.60
2022-11-26T15:01:20.250Z,13.98
2022-11-26T15:03:58.973Z,12.32
2022-11-26T15:06:29.136Z,13.40
2022-11-26T15:09:15.191Z,11.18
2022-11-26T15:12:11.364Z,10.65
2022-11-26T15:14:52.902Z,11.48
2022-11-26T15:17:22.810Z,13.95
2022-11-26T15:19:53.971Z,13.50
2022-11-26T15:22:44.336Z,13.30
2022-11-26T15:25:35.309Z,15.77
2022-11-26T15:28:16.693Z,12.70
2022-11-26T15:30:57.935Z,13.68
2022-11-26T15:33:27.307Z,15.85
2022-11-26T15:35:57.777Z,13.52
2022-11-26T15:38:30.708Z,16.77
2022-11-26T15:40:57.721Z,17.23
2022-11-26T15:43:24.685Z,17.45
2022-11-26T15:46:02.651Z,16.75
2022-11-26T15:48:51.591Z,15.82
2022-11-26T15:51:35.772Z,13.85
2022-11-26T15:54:20.280Z,15.30
2022-11-26T15:56:52.624Z,13.57
2022-11-26T15:59:21.228Z,13.02
2022-11-26T16:01:48.587Z,13.35
2022-11-26T16:04:39.238Z,12.10
2022-11-26T16:07:10.607Z,12.63
2022-11-26T16:09:37.654Z,13.10
2022-11-26T16:12:04.956Z,13.77
2022-11-26T16:14:39.490Z,15.90
2022-11-26T16:17:13.428Z,16.80
2022-11-26T16:19:54.293Z,14.82
2022-11-26T16:22:28.228Z,14.00
2022-11-26T16:25:07.579Z,14.80
2022-11-26T16:27:34.858Z,13.90
2022-11-26T16:30:07.346Z,13.70
2022-11-26T16:32:34.381Z,13.77
2022-11-26T16:35:17.459Z,12.85
2022-11-26T16:37:48.500Z,12.70
2022-11-26T16:40:17.704Z,13.05
2022-11-26T16:42:45.042Z,13.82
2022-11-26T16:45:13.193Z,13.68
2022-11-26T16:47:48.458Z,12.38
2022-11-26T16:50:24.808Z,13.27
2022-11-26T16:52:52.985Z,17.80
2022-11-26T16:55:23.921Z,17.05
2022-11-26T16:57:56.826Z,14.30
2022-11-26T17:00:26.192Z,17.58
2022-11-26T17:02:54.119Z,15.75
2022-11-26T17:05:22.634Z,14.63
2022-11-26T17:07:53.507Z,14.00
2022-11-26T17:10:25.005Z,15.02
2022-11-26T17:12:52.041Z,17.58
2022-11-26T17:15:19.101Z,15.65
2022-11-26T17:17:46.567Z,13.20
2022-11-26T17:20:25.576Z,14.88
2022-11-26T17:22:52.799Z,14.85
2022-11-26T17:25:20.606Z,15.93
2022-11-26T17:27:48.470Z,15.52
2022-11-26T17:30:18.452Z,18.50
2022-11-26T17:32:45.660Z,54.17
2022-11-26T17:35:13.256Z,57.15
2022-11-26T17:37:40.855Z,16.20
2022-11-26T17:40:20.689Z,18.38
2022-11-26T17:42:48.053Z,18.45
2022-11-26T17:45:15.900Z,25.00
2022-11-26T17:47:43.760Z,19.08
2022-11-26T17:50:30.292Z,19.35
2022-11-26T17:52:57.296Z,17.52
2022-11-26T17:55:25.777Z,19.25
2022-11-26T17:57:53.510Z,19.08
2022-11-26T18:00:28.182Z,19.63
2022-11-26T18:02:55.894Z,16.25
2022-11-26T18:05:23.477Z,19.35
2022-11-26T18:07:50.800Z,19.45
2022-11-26T18:10:19.906Z,18.77
2022-11-26T18:12:48.351Z,21.33
2022-11-26T18:15:21.556Z,18.02
2022-11-26T18:17:50.955Z,20.05
2022-11-26T18:20:21.374Z,19.27
2022-11-26T18:22:59.354Z,19.05
2022-11-26T18:25:27.288Z,18.55
2022-11-26T18:27:54.827Z,20.30
2022-11-26T18:30:22.201Z,18.67
2022-11-26T18:32:49.402Z,18.23
2022-11-26T18:35:17.177Z,18.20
2022-11-26T18:37:44.644Z,17.55
2022-11-26T18:40:15.376Z,17.88
2022-11-26T18:42:42.580Z,18.17
2022-11-26T18:45:11.894Z,18.60
2022-11-26T18:47:39.074Z,15.93
2022-11-26T18:50:06.877Z,19.48
2022-11-26T18:52:33.889Z,19.17
2022-11-26T18:55:04.639Z,23.40
2022-11-26T18:57:32.128Z,22.10
2022-11-26T18:59:59.179Z,20.85
2022-11-26T19:02:26.259Z,21.15
2022-11-26T19:04:53.305Z,17.35
2022-11-26T19:07:20.652Z,18.02
2022-11-26T19:09:48.743Z,17.85
2022-11-26T19:12:15.816Z,19.65
2022-11-26T19:14:42.714Z,19.33
2022-11-26T19:17:09.931Z,19.95
2022-11-26T19:19:38.433Z,20.75
2022-11-26T19:22:05.679Z,16.88
2022-11-26T19:24:32.606Z,19.42
2022-11-26T19:26:59.573Z,16.92
2022-11-26T19:29:26.620Z,19.33
2022-11-26T19:31:53.661Z,18.38
2022-11-26T19:34:20.906Z,20.58
2022-11-26T19:36:49.025Z,16.52
2022-11-26T19:39:16.933Z,18.73
2022-11-26T19:41:44.070Z,17.85
2022-11-26T19:44:12.199Z,16.75
2022-11-26T19:46:41.414Z,63.33
2022-11-26T19:49:12.128Z,16.00
2022-11-26T19:51:40.163Z,18.75
2022-11-26T19:54:07.488Z,20.05
2022-11-26T19:56:35.245Z,18.63
2022-11-26T19:59:03.325Z,20.38
2022-11-26T20:01:32.359Z,23.50
2022-11-26T20:04:01.681Z,17.85
2022-11-26T20:06:29.956Z,25.02
2022-11-26T20:09:00.514Z,19.33
2022-11-26T20:11:28.959Z,17.08
2022-11-26T20:13:57.183Z,19.55
2022-11-26T20:16:27.422Z,17.20
2022-11-26T20:18:54.880Z,17.63
2022-11-26T20:21:27.463Z,20.90
2022-11-26T20:23:57.391Z,21.20
2022-11-26T20:26:30.668Z,19.85
2022-11-26T20:29:07.751Z,23.55
2022-11-26T20:31:38.981Z,17.50
2022-11-26T20:34:05.932Z,21.60
2022-11-26T20:36:32.981Z,24.15
2022-11-26T20:39:01.844Z,21.25
2022-11-26T20:41:38.084Z,17.92
2022-11-26T20:44:05.342Z,21.63
2022-11-26T20:46:32.355Z,18.55
2022-11-26T20:48:59.337Z,23.95
2022-11-26T20:51:26.355Z,21.73
2022-11-26T20:53:53.676Z,21.58
2022-11-26T20:56:21.745Z,20.65
2022-11-26T20:58:50.411Z,23.80
2022-11-26T21:01:19.976Z,25.55
2022-11-26T21:03:47.258Z,24.02
2022-11-26T21:06:16.077Z,23.80
2022-11-26T21:08:43.286Z,27.80
2022-11-26T21:11:11.270Z,25.40
2022-11-26T21:13:38.992Z,27.02
2022-11-26T21:16:09.432Z,29.88
2022-11-26T21:18:36.550Z,25.35
2022-11-26T21:21:14.321Z,27.23
2022-11-26T21:23:43.374Z,28.20
2022-11-26T21:26:15.211Z,25.73
2022-11-26T21:28:43.258Z,28.13
2022-11-26T21:31:17.046Z,30.67
2022-11-26T21:33:47.989Z,27.25
2022-11-26T21:36:16.532Z,26.13
2022-11-26T21:38:48.547Z,30.15
2022-11-26T21:41:16.653Z,27.75
2022-11-26T21:43:44.386Z,27.95
2022-11-26T21:46:15.835Z,25.52
2022-11-26T21:48:43.020Z,30.90
2022-11-26T21:51:13.413Z,29.05
2022-11-26T21:53:40.628Z,29.55
2022-11-26T21:56:15.406Z,29.13
2022-11-26T21:58:42.904Z,28.85
2022-11-26T22:01:14.176Z,31.02
2022-11-26T22:03:43.202Z,26.40
2022-11-26T22:06:11.150Z,27.70
2022-11-26T22:08:38.379Z,27.50
2022-11-26T22:11:15.257Z,30.00
2022-11-26T22:13:42.288Z,23.55
2022-11-26T22:16:10.944Z,23.17
2022-11-26T22:18:39.280Z,26.27
2022-11-26T22:21:18.303Z,24.98
2022-11-26T22:23:45.845Z,23.80
2022-11-26T22:26:13.184Z,28.02
2022-11-26T22:28:40.719Z,25.38
2022-11-26T22:31:14.666Z,27.77
2022-11-26T22:33:41.926Z,23.17
2022-11-26T22:36:09.192Z,24.15
2022-11-26T22:38:40.251Z,21.83
2022-11-26T22:41:09.603Z,23.73
2022-11-26T22:43:37.152Z,25.77
2022-11-26T22:46:15.929Z,21.92
2022-11-26T22:48:43.983Z,24.10
2022-11-26T22:51:11.030Z,21.65
2022-11-26T22:53:38.005Z,25.05
2022-11-26T22:56:05.769Z,24.63
2022-11-26T22:58:33.946Z,26.83
2022-11-26T23:01:04.407Z,22.90
2022-11-26T23:03:34.286Z,24.83
2022-11-26T23:06:10.218Z,24.70
2022-11-26T23:11:25.764Z,20.30
2022-11-26T23:13:53.813Z,26.92
2022-11-26T23:16:22.476Z,23.75
2022-11-26T23:18:50.695Z,22.13
2022-11-26T23:21:21.864Z,20.63
2022-11-26T23:23:49.761Z,22.42
2022-11-26T23:26:26.508Z,17.75
2022-11-26T23:28:54.580Z,20.40
2022-11-26T23:31:24.806Z,20.75
2022-11-26T23:33:52.254Z,20.95
2022-11-26T23:36:20.078Z,19.02
2022-11-26T23:38:47.507Z,19.25
2022-11-26T23:41:14.871Z,19.60
2022-11-26T23:43:42.519Z,20.83
2022-11-26T23:46:20.399Z,19.92
2022-11-26T23:48:48.314Z,17.50
2022-11-26T23:51:24.449Z,19.98
2022-11-26T23:53:52.789Z,18.83
2022-11-26T23:56:22.763Z,22.73
2022-11-26T23:58:51.584Z,17.95
